ADDS METAR Data INFO
IDs: Format: Raw Decoded Include TAF

Data at: 1859 UTC 24 Jun 2017

METAR for:KSNS (Salinas Muni, CA, US)
Text:KSNS 241853Z 30006KT 10SM CLR 21/13 A2997 RMK AO2 SLP156 T02060133
Temperature: 20.6°C ( 69°F)
Dewpoint: 13.3°C ( 56°F) [RH = 63%]
Pressure (altimeter):29.97 inches Hg (1015.0 mb) [Sea level pressure: 1015.6 mb]
Winds:from the WNW (300 degrees) at 7 MPH (6 knots; 3.1 m/s)
Visibility:10 or more sm (16+ km)
Ceiling:at least 12,000 feet AGL
Clouds:sky clear below 12,000 feet AGL
Text:KSNS 241753Z 25007KT 10SM CLR 19/13 A2997 RMK AO2 SLP158 T01940133 10194 20139 56002
Temperature: 19.4°C ( 67°F)
Dewpoint: 13.3°C ( 56°F) [RH = 68%]
Pressure (altimeter):29.97 inches Hg (1015.0 mb) [Sea level pressure: 1015.8 mb]
Winds:from the WSW (250 degrees) at 8 MPH (7 knots; 3.6 m/s)
Visibility:10 or more sm (16+ km)
Ceiling:at least 12,000 feet AGL
Clouds:sky clear below 12,000 feet AGL
Text:KSNS 241653Z 00000KT 10SM SCT014 17/13 A2997 RMK AO2 SLP158 T01720133
Temperature: 17.2°C ( 63°F)
Dewpoint: 13.3°C ( 56°F) [RH = 78%]
Pressure (altimeter):29.97 inches Hg (1015.0 mb) [Sea level pressure: 1015.8 mb]
Winds:calm
Visibility:10 or more sm (16+ km)
Ceiling:at least 12,000 feet AGL
Clouds: scattered clouds at 1400 feet AGL
Text:KSNS 241553Z 30003KT 10SM OVC011 16/13 A2997 RMK AO2 SLP159 T01610128
Temperature: 16.1°C ( 61°F)
Dewpoint: 12.8°C ( 55°F) [RH = 81%]
Pressure (altimeter):29.97 inches Hg (1015.0 mb) [Sea level pressure: 1015.9 mb]
Winds:from the WNW (300 degrees) at 3 MPH (3 knots; 1.5 m/s)
Visibility:10 or more sm (16+ km)
Ceiling:1100 feet AGL
Clouds: overcast cloud deck at 1100 feet AGL
Text:KSNS 241541Z 30003KT 10SM SCT007 OVC011 16/13 A2998 RMK AO2 T01610128
Temperature: 16.1°C ( 61°F)
Dewpoint: 12.8°C ( 55°F) [RH = 81%]
Pressure (altimeter):29.98 inches Hg (1015.3 mb)
Winds:from the WNW (300 degrees) at 3 MPH (3 knots; 1.5 m/s)
Visibility:10 or more sm (16+ km)
Ceiling:1100 feet AGL
Clouds: scattered clouds at 700 feet AGL, overcast cloud deck at 1100 feet AGL
Text:KSNS 241453Z 00000KT 10SM OVC007 15/13 A2998 RMK AO2 SLP160 T01500133 51008
Temperature: 15.0°C ( 59°F)
Dewpoint: 13.3°C ( 56°F) [RH = 90%]
Pressure (altimeter):29.98 inches Hg (1015.3 mb) [Sea level pressure: 1016.0 mb]
Winds:calm
Visibility:10 or more sm (16+ km)
Ceiling:700 feet AGL
Clouds: overcast cloud deck at 700 feet AGL
Text:KSNS 241353Z 00000KT 6SM BR OVC007 14/13 A2997 RMK AO2 SLP158 T01390133
Temperature: 13.9°C ( 57°F)
Dewpoint: 13.3°C ( 56°F) [RH = 96%]
Pressure (altimeter):29.97 inches Hg (1015.0 mb) [Sea level pressure: 1015.8 mb]
Winds:calm
Visibility: 6 sm ( 10 km)
Ceiling:700 feet AGL
Clouds: overcast cloud deck at 700 feet AGL
Weather:BR (mist)
Text:KSNS 241253Z 29004KT 10SM OVC005 14/13 A2997 RMK AO2 CIG 003V007 SLP156 T01390133
Temperature: 13.9°C ( 57°F)
Dewpoint: 13.3°C ( 56°F) [RH = 96%]
Pressure (altimeter):29.97 inches Hg (1015.0 mb) [Sea level pressure: 1015.6 mb]
Winds:from the WNW (290 degrees) at 5 MPH (4 knots; 2.1 m/s)
Visibility:10 or more sm (16+ km)
Ceiling:500 feet AGL
Clouds: overcast cloud deck at 500 feet AGL
Text:KSNS 241239Z 29004KT 5SM BR OVC004 14/13 A2997 RMK AO2 T01390133
Temperature: 13.9°C ( 57°F)
Dewpoint: 13.3°C ( 56°F) [RH = 96%]
Pressure (altimeter):29.97 inches Hg (1015.0 mb)
Winds:from the WNW (290 degrees) at 5 MPH (4 knots; 2.1 m/s)
Visibility: 5 sm ( 8 km)
Ceiling:400 feet AGL
Clouds: overcast cloud deck at 400 feet AGL
Weather:BR (mist)
Text:KSNS 241229Z 31006KT 4SM BR OVC005 14/14 A2997 RMK AO2 T01390139
Temperature: 13.9°C ( 57°F)
Dewpoint: 13.9°C ( 57°F) [RH = 100%]
Pressure (altimeter):29.97 inches Hg (1015.0 mb)
Winds:from the NW (310 degrees) at 7 MPH (6 knots; 3.1 m/s)
Visibility: 4 sm ( 6 km)
Ceiling:500 feet AGL
Clouds: overcast cloud deck at 500 feet AGL
Weather:BR (mist)
Text:KSNS 241153Z AUTO 29006KT 5SM BR OVC004 14/14 A2995 RMK AO2 SLP152 T01390139 10150 20139 53003
Temperature: 13.9°C ( 57°F)
Dewpoint: 13.9°C ( 57°F) [RH = 100%]
Pressure (altimeter):29.95 inches Hg (1014.3 mb) [Sea level pressure: 1015.2 mb]
Winds:from the WNW (290 degrees) at 7 MPH (6 knots; 3.1 m/s)
Visibility: 5 sm ( 8 km)
Ceiling:400 feet AGL
Clouds: overcast cloud deck at 400 feet AGL
Weather:BR (mist)
QC Flag:automated observation with no human augmentation
Text:KSNS 241140Z AUTO 30005KT 5SM BR OVC004 14/14 A2995 RMK AO2 T01390139
Temperature: 13.9°C ( 57°F)
Dewpoint: 13.9°C ( 57°F) [RH = 100%]
Pressure (altimeter):29.95 inches Hg (1014.3 mb)
Winds:from the WNW (300 degrees) at 6 MPH (5 knots; 2.6 m/s)
Visibility: 5 sm ( 8 km)
Ceiling:400 feet AGL
Clouds: overcast cloud deck at 400 feet AGL
Weather:BR (mist)
QC Flag:automated observation with no human augmentation
Text:KSNS 241109Z AUTO 26003KT 8SM OVC005 14/13 A2994 RMK AO2 T01440133
Temperature: 14.4°C ( 58°F)
Dewpoint: 13.3°C ( 56°F) [RH = 93%]
Pressure (altimeter):29.94 inches Hg (1014.0 mb)
Winds:from the W (260 degrees) at 3 MPH (3 knots; 1.5 m/s)
Visibility: 8 sm ( 13 km)
Ceiling:500 feet AGL
Clouds: overcast cloud deck at 500 feet AGL
QC Flag:automated observation with no human augmentation
Text:KSNS 241053Z AUTO 00000KT 10SM OVC004 14/13 A2995 RMK AO2 SLP149 T01390133
Temperature: 13.9°C ( 57°F)
Dewpoint: 13.3°C ( 56°F) [RH = 96%]
Pressure (altimeter):29.95 inches Hg (1014.3 mb) [Sea level pressure: 1014.9 mb]
Winds:calm
Visibility:10 or more sm (16+ km)
Ceiling:400 feet AGL
Clouds: overcast cloud deck at 400 feet AGL
QC Flag:automated observation with no human augmentation
Text:KSNS 240953Z AUTO 30003KT 10SM OVC004 14/14 A2994 RMK AO2 SLP148 T01440139
Temperature: 14.4°C ( 58°F)
Dewpoint: 13.9°C ( 57°F) [RH = 97%]
Pressure (altimeter):29.94 inches Hg (1014.0 mb) [Sea level pressure: 1014.8 mb]
Winds:from the WNW (300 degrees) at 3 MPH (3 knots; 1.5 m/s)
Visibility:10 or more sm (16+ km)
Ceiling:400 feet AGL
Clouds: overcast cloud deck at 400 feet AGL
QC Flag:automated observation with no human augmentation
Text:KSNS 240940Z AUTO 29003KT 9SM OVC004 14/13 A2994 RMK AO2 T01440133
Temperature: 14.4°C ( 58°F)
Dewpoint: 13.3°C ( 56°F) [RH = 93%]
Pressure (altimeter):29.94 inches Hg (1014.0 mb)
Winds:from the WNW (290 degrees) at 3 MPH (3 knots; 1.5 m/s)
Visibility: 9 sm ( 14 km)
Ceiling:400 feet AGL
Clouds: overcast cloud deck at 400 feet AGL
QC Flag:automated observation with no human augmentation
Text:KSNS 240912Z AUTO 30004KT 10SM OVC005 14/13 A2994 RMK AO2 T01440133
Temperature: 14.4°C ( 58°F)
Dewpoint: 13.3°C ( 56°F) [RH = 93%]
Pressure (altimeter):29.94 inches Hg (1014.0 mb)
Winds:from the WNW (300 degrees) at 5 MPH (4 knots; 2.1 m/s)
Visibility:10 or more sm (16+ km)
Ceiling:500 feet AGL
Clouds: overcast cloud deck at 500 feet AGL
QC Flag:automated observation with no human augmentation
Text:KSNS 240853Z AUTO 00000KT 8SM OVC004 14/14 A2994 RMK AO2 SLP149 T01440139 58005
Temperature: 14.4°C ( 58°F)
Dewpoint: 13.9°C ( 57°F) [RH = 97%]
Pressure (altimeter):29.94 inches Hg (1014.0 mb) [Sea level pressure: 1014.9 mb]
Winds:calm
Visibility: 8 sm ( 13 km)
Ceiling:400 feet AGL
Clouds: overcast cloud deck at 400 feet AGL
QC Flag:automated observation with no human augmentation
Text:KSNS 240828Z AUTO 30005KT 9SM OVC004 14/14 A2995 RMK AO2 T01440139
Temperature: 14.4°C ( 58°F)
Dewpoint: 13.9°C ( 57°F) [RH = 97%]
Pressure (altimeter):29.95 inches Hg (1014.3 mb)
Winds:from the WNW (300 degrees) at 6 MPH (5 knots; 2.6 m/s)
Visibility: 9 sm ( 14 km)
Ceiling:400 feet AGL
Clouds: overcast cloud deck at 400 feet AGL
QC Flag:automated observation with no human augmentation
Text:KSNS 240753Z AUTO 29004KT 9SM OVC005 14/13 A2996 RMK AO2 SLP155 T01440133 402110133
Temperature: 14.4°C ( 58°F)
Dewpoint: 13.3°C ( 56°F) [RH = 93%]
Pressure (altimeter):29.96 inches Hg (1014.6 mb) [Sea level pressure: 1015.5 mb]
Winds:from the WNW (290 degrees) at 5 MPH (4 knots; 2.1 m/s)
Visibility: 9 sm ( 14 km)
Ceiling:500 feet AGL
Clouds: overcast cloud deck at 500 feet AGL
QC Flag:automated observation with no human augmentation


Page loaded:  18:59 UTC  |   11:59 AM Pacific  |   12:59 PM Mountain  |   01:59 PM Central  |   02:59 PM Eastern

 

ADVISORIES

FORECASTS

FORECASTS

OBSERVATIONS

USER TOOLS

ABOUT US